sensor_id;sensor_type;location;lat;lon;timestamp;pressure;altitude;pressure_sealevel;temperature;humidity
12636;BME280;6383;50.830;7.210;2023-07-13T00:00:37;100771.69;;;24.45;37.49
12636;BME280;6383;50.830;7.210;2023-07-13T00:03:04;100771.69;;;24.41;37.81
12636;BME280;6383;50.830;7.210;2023-07-13T00:05:32;100779.63;;;24.43;37.97
12636;BME280;6383;50.830;7.210;2023-07-13T00:08:00;100772.88;;;24.44;38.18
12636;BME280;6383;50.830;7.210;2023-07-13T00:10:29;100770.53;;;24.46;39.04
12636;BME280;6383;50.830;7.210;2023-07-13T00:13:00;100774.88;;;24.43;39.29
12636;BME280;6383;50.830;7.210;2023-07-13T00:15:29;100774.88;;;24.43;39.04
12636;BME280;6383;50.830;7.210;2023-07-13T00:17:57;100779.63;;;24.43;39.54
12636;BME280;6383;50.830;7.210;2023-07-13T00:20:26;100773.31;;;24.46;39.13
12636;BME280;6383;50.830;7.210;2023-07-13T00:22:56;100776.09;;;24.46;39.18
12636;BME280;6383;50.830;7.210;2023-07-13T00:25:24;100780.06;;;24.45;39.17
12636;BME280;6383;50.830;7.210;2023-07-13T00:27:55;100779.25;;;24.44;39.77
12636;BME280;6383;50.830;7.210;2023-07-13T00:30:26;100774.06;;;24.43;39.24
12636;BME280;6383;50.830;7.210;2023-07-13T00:32:54;100769.25;;;24.36;39.61
12636;BME280;6383;50.830;7.210;2023-07-13T00:35:22;100772.03;;;24.33;39.81
12636;BME280;6383;50.830;7.210;2023-07-13T00:37:49;100769.63;;;24.28;39.74
12636;BME280;6383;50.830;7.210;2023-07-13T00:40:18;100762.78;;;24.21;39.51
12636;BME280;6383;50.830;7.210;2023-07-13T00:42:47;100758.41;;;24.20;40.33
12636;BME280;6383;50.830;7.210;2023-07-13T00:48:26;100757.97;;;24.11;40.58
12636;BME280;6383;50.830;7.210;2023-07-13T00:50:59;100748.03;;;24.10;39.82
12636;BME280;6383;50.830;7.210;2023-07-13T00:53:29;100746.41;;;24.09;40.08
12636;BME280;6383;50.830;7.210;2023-07-13T00:55:59;100755.91;;;24.05;40.87
12636;BME280;6383;50.830;7.210;2023-07-13T00:58:29;100756.72;;;24.02;40.35
12636;BME280;6383;50.830;7.210;2023-07-13T01:00:58;100756.72;;;24.02;40.32
12636;BME280;6383;50.830;7.210;2023-07-13T01:03:29;100757.09;;;24.00;40.94
12636;BME280;6383;50.830;7.210;2023-07-13T01:05:58;100755.06;;;23.94;40.16
12636;BME280;6383;50.830;7.210;2023-07-13T01:08:26;100761.00;;;23.88;41.20
12636;BME280;6383;50.830;7.210;2023-07-13T01:10:56;100761.34;;;23.83;40.69
12636;BME280;6383;50.830;7.210;2023-07-13T01:13:26;100768.84;;;23.79;40.64
12636;BME280;6383;50.830;7.210;2023-07-13T01:15:57;100770.41;;;23.77;40.77
12636;BME280;6383;50.830;7.210;2023-07-13T01:18:29;100768.00;;;23.72;40.90
12636;BME280;6383;50.830;7.210;2023-07-13T01:21:02;100770.78;;;23.72;41.18
12636;BME280;6383;50.830;7.210;2023-07-13T01:23:32;100765.22;;;23.75;40.86
12636;BME280;6383;50.830;7.210;2023-07-13T01:26:01;100771.97;;;23.71;41.04
12636;BME280;6383;50.830;7.210;2023-07-13T01:28:30;100769.56;;;23.69;41.23
12636;BME280;6383;50.830;7.210;2023-07-13T01:30:59;100771.53;;;23.69;40.72
12636;BME280;6383;50.830;7.210;2023-07-13T01:33:26;100773.06;;;23.63;41.08
12636;BME280;6383;50.830;7.210;2023-07-13T01:35:55;100768.66;;;23.54;41.04
12636;BME280;6383;50.830;7.210;2023-07-13T01:38:26;100765.00;;;23.50;41.47
12636;BME280;6383;50.830;7.210;2023-07-13T01:40:55;100764.19;;;23.50;41.26
12636;BME280;6383;50.830;7.210;2023-07-13T01:43:25;100768.94;;;23.49;41.92
12636;BME280;6383;50.830;7.210;2023-07-13T01:45:53;100763.72;;;23.41;41.31
12636;BME280;6383;50.830;7.210;2023-07-13T01:48:21;100766.03;;;23.35;41.95
12636;BME280;6383;50.830;7.210;2023-07-13T01:50:50;100764.81;;;23.29;41.54
12636;BME280;6383;50.830;7.210;2023-07-13T01:53:18;100769.94;;;23.27;41.61
12636;BME280;6383;50.830;7.210;2023-07-13T01:55:48;100764.34;;;23.24;42.19
12636;BME280;6383;50.830;7.210;2023-07-13T01:58:17;100769.53;;;23.25;42.27
12636;BME280;6383;50.830;7.210;2023-07-13T02:00:48;100772.28;;;23.25;42.21
12636;BME280;6383;50.830;7.210;2023-07-13T02:03:15;100770.69;;;23.24;41.73
12636;BME280;6383;50.830;7.210;2023-07-13T02:05:45;100761.94;;;23.22;42.16
12636;BME280;6383;50.830;7.210;2023-07-13T02:08:14;100759.97;;;23.23;42.44
12636;BME280;6383;50.830;7.210;2023-07-13T02:10:41;100765.06;;;23.17;42.53
12636;BME280;6383;50.830;7.210;2023-07-13T02:13:12;100768.56;;;23.10;42.36
12636;BME280;6383;50.830;7.210;2023-07-13T02:15:41;100765.78;;;23.10;42.59
12636;BME280;6383;50.830;7.210;2023-07-13T02:18:10;100772.16;;;23.11;42.43
12636;BME280;6383;50.830;7.210;2023-07-13T02:20:40;100779.56;;;23.00;42.74
12636;BME280;6383;50.830;7.210;2023-07-13T02:23:09;100775.53;;;22.94;43.30
12636;BME280;6383;50.830;7.210;2023-07-13T02:25:38;100777.03;;;22.88;43.77
12636;BME280;6383;50.830;7.210;2023-07-13T02:28:05;100771.03;;;22.85;43.33
12636;BME280;6383;50.830;7.210;2023-07-13T02:30:36;100769.84;;;22.83;44.10
12636;BME280;6383;50.830;7.210;2023-07-13T02:33:05;100777.00;;;22.84;43.42
12636;BME280;6383;50.830;7.210;2023-07-13T02:35:33;100779.38;;;22.85;43.17
12636;BME280;6383;50.830;7.210;2023-07-13T02:38:01;100779.00;;;22.87;43.41
12636;BME280;6383;50.830;7.210;2023-07-13T02:40:30;100778.94;;;22.80;43.82
12636;BME280;6383;50.830;7.210;2023-07-13T02:43:00;100777.31;;;22.79;43.68
12636;BME280;6383;50.830;7.210;2023-07-13T02:45:28;100778.41;;;22.74;44.04
12636;BME280;6383;50.830;7.210;2023-07-13T02:47:56;100776.44;;;22.75;44.40
12636;BME280;6383;50.830;7.210;2023-07-13T02:50:24;100779.16;;;22.71;43.76
12636;BME280;6383;50.830;7.210;2023-07-13T02:52:52;100779.84;;;22.61;43.95
12636;BME280;6383;50.830;7.210;2023-07-13T02:55:24;100777.34;;;22.52;44.32
12636;BME280;6383;50.830;7.210;2023-07-13T02:57:52;100779.34;;;22.52;44.32
12636;BME280;6383;50.830;7.210;2023-07-13T03:00:22;100778.09;;;22.49;43.72
12636;BME280;6383;50.830;7.210;2023-07-13T03:02:53;100780.03;;;22.45;44.00
12636;BME280;6383;50.830;7.210;2023-07-13T03:05:25;100778.06;;;22.46;44.17
12636;BME280;6383;50.830;7.210;2023-07-13T03:07:53;100781.25;;;22.48;44.83
12636;BME280;6383;50.830;7.210;2023-07-13T03:10:21;100777.72;;;22.51;44.53
12636;BME280;6383;50.830;7.210;2023-07-13T03:12:50;100780.13;;;22.52;44.41
12636;BME280;6383;50.830;7.210;2023-07-13T03:15:18;100782.53;;;22.54;44.81
12636;BME280;6383;50.830;7.210;2023-07-13T03:17:45;100793.19;;;22.52;44.89
12636;BME280;6383;50.830;7.210;2023-07-13T03:20:15;100790.44;;;22.52;44.70
12636;BME280;6383;50.830;7.210;2023-07-13T03:22:46;100795.22;;;22.55;44.73
12636;BME280;6383;50.830;7.210;2023-07-13T03:25:15;100805.94;;;22.57;44.33
12636;BME280;6383;50.830;7.210;2023-07-13T03:27:43;100803.13;;;22.53;44.80
12636;BME280;6383;50.830;7.210;2023-07-13T03:30:13;100800.97;;;22.43;45.04
12636;BME280;6383;50.830;7.210;2023-07-13T03:32:42;100806.53;;;22.43;45.15
12636;BME280;6383;50.830;7.210;2023-07-13T03:35:10;100807.69;;;22.38;44.71
12636;BME280;6383;50.830;7.210;2023-07-13T03:37:38;100814.41;;;22.37;45.29
12636;BME280;6383;50.830;7.210;2023-07-13T03:40:12;100802.56;;;22.40;45.18
12636;BME280;6383;50.830;7.210;2023-07-13T03:42:41;100813.69;;;22.44;45.42
12636;BME280;6383;50.830;7.210;2023-07-13T03:45:09;100811.63;;;22.37;44.81
12636;BME280;6383;50.830;7.210;2023-07-13T03:47:38;100814.34;;;22.34;45.16
12636;BME280;6383;50.830;7.210;2023-07-13T03:50:08;100817.84;;;22.31;44.86
12636;BME280;6383;50.830;7.210;2023-07-13T03:52:37;100820.63;;;22.31;45.27
12636;BME280;6383;50.830;7.210;2023-07-13T03:55:06;100819.13;;;22.37;45.32
12636;BME280;6383;50.830;7.210;2023-07-13T03:57:37;100823.94;;;22.40;45.42
12636;BME280;6383;50.830;7.210;2023-07-13T04:00:07;100828.28;;;22.41;45.85
12636;BME280;6383;50.830;7.210;2023-07-13T04:02:36;100827.13;;;22.42;45.55
12636;BME280;6383;50.830;7.210;2023-07-13T04:05:06;100833.06;;;22.40;45.23
12636;BME280;6383;50.830;7.210;2023-07-13T04:07:35;100822.75;;;22.41;46.52
12636;BME280;6383;50.830;7.210;2023-07-13T04:10:04;100824.63;;;22.33;45.71
12636;BME280;6383;50.830;7.210;2023-07-13T04:12:32;100835.22;;;22.28;46.89
12636;BME280;6383;50.830;7.210;2023-07-13T04:15:02;100837.84;;;22.17;46.99
12636;BME280;6383;50.830;7.210;2023-07-13T04:17:30;100835.00;;;22.13;47.07
12636;BME280;6383;50.830;7.210;2023-07-13T04:19:57;100826.09;;;22.01;47.96
12636;BME280;6383;50.830;7.210;2023-07-13T04:22:26;100832.75;;;21.96;47.76
12636;BME280;6383;50.830;7.210;2023-07-13T04:24:55;100829.22;;;21.99;48.39
12636;BME280;6383;50.830;7.210;2023-07-13T04:27:22;100834.91;;;22.06;48.88
12636;BME280;6383;50.830;7.210;2023-07-13T04:29:50;100837.19;;;22.01;46.62
12636;BME280;6383;50.830;7.210;2023-07-13T04:32:20;100835.91;;;21.98;47.36
12636;BME280;6383;50.830;7.210;2023-07-13T04:34:49;100830.03;;;22.00;48.06
12636;BME280;6383;50.830;7.210;2023-07-13T04:37:20;100834.84;;;22.03;48.05
12636;BME280;6383;50.830;7.210;2023-07-13T04:39:49;100833.91;;;21.95;47.39
12636;BME280;6383;50.830;7.210;2023-07-13T04:42:17;100835.13;;;21.98;47.30
12636;BME280;6383;50.830;7.210;2023-07-13T04:44:48;100842.34;;;22.02;47.35
12636;BME280;6383;50.830;7.210;2023-07-13T04:47:17;100843.75;;;21.93;46.39
12636;BME280;6383;50.830;7.210;2023-07-13T04:49:48;100838.53;;;21.88;46.21
12636;BME280;6383;50.830;7.210;2023-07-13T04:52:16;100838.88;;;21.86;46.77
12636;BME280;6383;50.830;7.210;2023-07-13T04:54:43;100836.75;;;21.76;45.74
12636;BME280;6383;50.830;7.210;2023-07-13T04:57:12;100846.94;;;21.72;46.14
12636;BME280;6383;50.830;7.210;2023-07-13T04:59:41;100842.56;;;21.71;45.93
12636;BME280;6383;50.830;7.210;2023-07-13T05:02:10;100840.59;;;21.71;46.17
12636;BME280;6383;50.830;7.210;2023-07-13T05:04:39;100848.03;;;21.67;46.31
12636;BME280;6383;50.830;7.210;2023-07-13T05:07:09;100847.22;;;21.63;46.41
12636;BME280;6383;50.830;7.210;2023-07-13T05:09:37;100846.84;;;21.65;46.57
12636;BME280;6383;50.830;7.210;2023-07-13T05:12:07;100846.78;;;21.61;46.14
12636;BME280;6383;50.830;7.210;2023-07-13T05:14:35;100854.38;;;21.68;46.67
12636;BME280;6383;50.830;7.210;2023-07-13T05:17:04;100858.84;;;21.72;46.83
12636;BME280;6383;50.830;7.210;2023-07-13T05:19:32;100858.63;;;21.81;47.45
12636;BME280;6383;50.830;7.210;2023-07-13T05:22:01;100856.69;;;21.85;46.54
12636;BME280;6383;50.830;7.210;2023-07-13T05:24:33;100864.63;;;21.87;46.21
12636;BME280;6383;50.830;7.210;2023-07-13T05:27:01;100854.34;;;21.87;45.85
12636;BME280;6383;50.830;7.210;2023-07-13T05:29:30;100864.75;;;21.94;47.00
12636;BME280;6383;50.830;7.210;2023-07-13T05:31:57;100864.81;;;21.97;47.00
12636;BME280;6383;50.830;7.210;2023-07-13T05:34:25;100870.44;;;22.01;46.89
12636;BME280;6383;50.830;7.210;2023-07-13T05:36:54;100874.81;;;22.02;46.52
12636;BME280;6383;50.830;7.210;2023-07-13T05:39:23;100877.84;;;21.97;47.01
12636;BME280;6383;50.830;7.210;2023-07-13T05:41:54;100871.53;;;21.96;47.21
12636;BME280;6383;50.830;7.210;2023-07-13T05:44:23;100873.22;;;22.01;47.03
12636;BME280;6383;50.830;7.210;2023-07-13T05:46:51;100874.09;;;22.05;46.85
12636;BME280;6383;50.830;7.210;2023-07-13T05:49:20;100879.06;;;21.96;46.66
12636;BME280;6383;50.830;7.210;2023-07-13T05:51:48;100871.94;;;21.98;46.03
12636;BME280;6383;50.830;7.210;2023-07-13T05:54:17;100881.53;;;22.01;46.37
12636;BME280;6383;50.830;7.210;2023-07-13T05:56:46;100873.22;;;22.01;46.53
12636;BME280;6383;50.830;7.210;2023-07-13T05:59:17;100873.59;;;21.99;45.80
12636;BME280;6383;50.830;7.210;2023-07-13T06:01:46;100889.03;;;22.00;45.88
12636;BME280;6383;50.830;7.210;2023-07-13T06:04:15;100895.25;;;21.94;47.03
12636;BME280;6383;50.830;7.210;2023-07-13T06:06:47;100898.38;;;21.92;46.59
12636;BME280;6383;50.830;7.210;2023-07-13T06:09:17;100899.66;;;21.98;46.30
12636;BME280;6383;50.830;7.210;2023-07-13T06:11:46;100900.94;;;22.01;47.37
12636;BME280;6383;50.830;7.210;2023-07-13T06:14:16;100904.56;;;22.05;46.82
12636;BME280;6383;50.830;7.210;2023-07-13T06:16:45;100908.66;;;22.11;46.30
12636;BME280;6383;50.830;7.210;2023-07-13T06:19:13;100904.50;;;22.01;45.96
12636;BME280;6383;50.830;7.210;2023-07-13T06:21:40;100917.94;;;21.99;46.53
12636;BME280;6383;50.830;7.210;2023-07-13T06:24:10;100913.41;;;21.91;46.07
12636;BME280;6383;50.830;7.210;2023-07-13T06:26:37;100916.03;;;21.84;46.99
12636;BME280;6383;50.830;7.210;2023-07-13T06:29:06;100918.44;;;21.86;46.55
12636;BME280;6383;50.830;7.210;2023-07-13T06:31:35;100919.75;;;21.92;46.82
12636;BME280;6383;50.830;7.210;2023-07-13T06:34:03;100915.75;;;21.89;46.89
12636;BME280;6383;50.830;7.210;2023-07-13T06:36:32;100917.22;;;21.83;47.63
12636;BME280;6383;50.830;7.210;2023-07-13T06:39:01;100922.16;;;21.93;47.40
12636;BME280;6383;50.830;7.210;2023-07-13T06:41:30;100922.31;;;22.00;46.79
12636;BME280;6383;50.830;7.210;2023-07-13T06:44:01;100911.91;;;21.97;47.26
12636;BME280;6383;50.830;7.210;2023-07-13T06:46:28;100909.25;;;22.01;47.13
12636;BME280;6383;50.830;7.210;2023-07-13T06:48:58;100916.47;;;22.05;46.95
12636;BME280;6383;50.830;7.210;2023-07-13T06:51:27;100913.53;;;21.98;46.87
12636;BME280;6383;50.830;7.210;2023-07-13T06:53:56;100911.91;;;21.97;46.92
12636;BME280;6383;50.830;7.210;2023-07-13T06:56:25;100919.69;;;22.07;47.19
12636;BME280;6383;50.830;7.210;2023-07-13T06:58:53;100917.44;;;22.16;47.51
12636;BME280;6383;50.830;7.210;2023-07-13T07:01:22;100917.75;;;22.34;47.61
12636;BME280;6383;50.830;7.210;2023-07-13T07:03:51;100914.28;;;22.41;47.58
12636;BME280;6383;50.830;7.210;2023-07-13T07:06:21;100924.69;;;22.47;47.08
12636;BME280;6383;50.830;7.210;2023-07-13T07:08:50;100913.22;;;22.49;46.23
12636;BME280;6383;50.830;7.210;2023-07-13T07:11:20;100922.84;;;22.55;46.87
12636;BME280;6383;50.830;7.210;2023-07-13T07:13:50;100919.28;;;22.55;47.02
12636;BME280;6383;50.830;7.210;2023-07-13T07:16:20;100918.56;;;22.61;47.00
12636;BME280;6383;50.830;7.210;2023-07-13T07:18:49;100926.88;;;22.61;46.52
12636;BME280;6383;50.830;7.210;2023-07-13T07:21:16;100928.84;;;22.61;46.59
12636;BME280;6383;50.830;7.210;2023-07-13T07:23:47;100924.91;;;22.62;46.70
12636;BME280;6383;50.830;7.210;2023-07-13T07:26:16;100930.53;;;22.65;45.89
12636;BME280;6383;50.830;7.210;2023-07-13T07:28:43;100930.88;;;22.64;46.52
12636;BME280;6383;50.830;7.210;2023-07-13T07:31:12;100926.28;;;22.75;46.33
12636;BME280;6383;50.830;7.210;2023-07-13T07:33:41;100919.28;;;22.81;46.36
12636;BME280;6383;50.830;7.210;2023-07-13T07:36:09;100930.06;;;22.86;45.44
12636;BME280;6383;50.830;7.210;2023-07-13T07:38:39;100926.44;;;22.82;45.33
12636;BME280;6383;50.830;7.210;2023-07-13T07:41:10;100926.81;;;22.80;46.01
12636;BME280;6383;50.830;7.210;2023-07-13T07:43:39;100926.88;;;22.84;45.96
12636;BME280;6383;50.830;7.210;2023-07-13T07:46:08;100932.44;;;22.88;45.96
12636;BME280;6383;50.830;7.210;2023-07-13T07:48:37;100932.09;;;22.89;46.06
12636;BME280;6383;50.830;7.210;2023-07-13T07:51:04;100935.66;;;22.90;45.29
12636;BME280;6383;50.830;7.210;2023-07-13T07:53:32;100936.00;;;22.84;45.86
12636;BME280;6383;50.830;7.210;2023-07-13T07:56:02;100934.41;;;22.83;45.35
12636;BME280;6383;50.830;7.210;2023-07-13T07:58:33;100931.50;;;22.76;45.51
12636;BME280;6383;50.830;7.210;2023-07-13T08:01:04;100929.66;;;22.84;45.32
12636;BME280;6383;50.830;7.210;2023-07-13T08:03:32;100932.88;;;22.90;45.59
12636;BME280;6383;50.830;7.210;2023-07-13T08:06:02;100925.47;;;22.97;46.20
12636;BME280;6383;50.830;7.210;2023-07-13T08:08:31;100931.47;;;23.03;45.44
12636;BME280;6383;50.830;7.210;2023-07-13T08:11:02;100931.91;;;23.05;45.49
12636;BME280;6383;50.830;7.210;2023-07-13T08:13:33;100929.13;;;23.05;45.11
12636;BME280;6383;50.830;7.210;2023-07-13T08:16:04;100929.25;;;23.12;45.61
12636;BME280;6383;50.830;7.210;2023-07-13T08:18:33;100927.25;;;23.12;45.27
12636;BME280;6383;50.830;7.210;2023-07-13T08:21:06;100925.59;;;23.08;44.76
12636;BME280;6383;50.830;7.210;2023-07-13T08:23:36;100915.97;;;22.98;45.15
12636;BME280;6383;50.830;7.210;2023-07-13T08:26:04;100921.22;;;23.07;45.11
12636;BME280;6383;50.830;7.210;2023-07-13T08:28:34;100919.75;;;23.16;44.54
12636;BME280;6383;50.830;7.210;2023-07-13T08:31:03;100919.06;;;23.23;45.48
12636;BME280;6383;50.830;7.210;2023-07-13T08:33:33;100912.38;;;23.28;44.79
12636;BME280;6383;50.830;7.210;2023-07-13T08:36:01;100915.22;;;23.35;44.27
12636;BME280;6383;50.830;7.210;2023-07-13T08:38:30;100910.91;;;23.37;44.45
12636;BME280;6383;50.830;7.210;2023-07-13T08:40:59;100916.13;;;23.42;44.31
12636;BME280;6383;50.830;7.210;2023-07-13T08:43:28;100905.81;;;23.43;43.88
12636;BME280;6383;50.830;7.210;2023-07-13T08:46:02;100910.22;;;23.47;44.86
12636;BME280;6383;50.830;7.210;2023-07-13T08:48:36;100905.22;;;23.57;44.24
12636;BME280;6383;50.830;7.210;2023-07-13T08:51:14;100904.16;;;23.68;44.00
12636;BME280;6383;50.830;7.210;2023-07-13T08:53:48;100899.44;;;23.76;44.02
12636;BME280;6383;50.830;7.210;2023-07-13T08:56:21;100903.44;;;23.78;43.36
12636;BME280;6383;50.830;7.210;2023-07-13T08:58:53;100894.00;;;23.86;42.87
12636;BME280;6383;50.830;7.210;2023-07-13T09:01:32;100908.25;;;23.81;43.32
12636;BME280;6383;50.830;7.210;2023-07-13T09:04:05;100898.78;;;23.89;43.77
12636;BME280;6383;50.830;7.210;2023-07-13T09:06:55;100898.13;;;24.03;43.67
12636;BME280;6383;50.830;7.210;2023-07-13T09:09:33;100910.44;;;24.02;42.83
12636;BME280;6383;50.830;7.210;2023-07-13T09:12:14;100901.66;;;23.97;42.64
12636;BME280;6383;50.830;7.210;2023-07-13T09:14:47;100902.53;;;24.08;43.83
12636;BME280;6383;50.830;7.210;2023-07-13T09:17:23;100902.22;;;24.20;43.29
12636;BME280;6383;50.830;7.210;2023-07-13T09:19:58;100903.84;;;24.21;43.55
12636;BME280;6383;50.830;7.210;2023-07-13T09:22:27;100902.31;;;24.23;43.00
12636;BME280;6383;50.830;7.210;2023-07-13T09:25:00;100903.13;;;24.28;43.91
12636;BME280;6383;50.830;7.210;2023-07-13T09:27:36;100904.34;;;24.30;43.45
12636;BME280;6383;50.830;7.210;2023-07-13T09:30:21;100895.63;;;24.35;43.39
12636;BME280;6383;50.830;7.210;2023-07-13T09:32:54;100905.56;;;24.33;43.56
12636;BME280;6383;50.830;7.210;2023-07-13T09:35:26;100896.09;;;24.41;43.13
12636;BME280;6383;50.830;7.210;2023-07-13T09:37:58;100901.66;;;24.41;43.35
12636;BME280;6383;50.830;7.210;2023-07-13T09:40:38;100907.97;;;24.38;42.16
12636;BME280;6383;50.830;7.210;2023-07-13T09:43:12;100903.59;;;24.37;41.96
12636;BME280;6383;50.830;7.210;2023-07-13T09:45:45;100896.81;;;24.34;42.33
12636;BME280;6383;50.830;7.210;2023-07-13T09:48:17;100898.88;;;24.41;43.42
12636;BME280;6383;50.830;7.210;2023-07-13T09:50:47;100908.09;;;24.52;42.81
12636;BME280;6383;50.830;7.210;2023-07-13T09:53:18;100904.84;;;24.43;42.51
12636;BME280;6383;50.830;7.210;2023-07-13T09:55:48;100907.63;;;24.43;42.43
12636;BME280;6383;50.830;7.210;2023-07-13T09:58:22;100911.28;;;24.54;42.51
12636;BME280;6383;50.830;7.210;2023-07-13T10:00:55;100914.47;;;24.56;42.16
12636;BME280;6383;50.830;7.210;2023-07-13T10:03:27;100911.69;;;24.56;42.24
12636;BME280;6383;50.830;7.210;2023-07-13T10:06:03;100914.53;;;24.63;42.01
12636;BME280;6383;50.830;7.210;2023-07-13T10:08:35;100908.22;;;24.70;42.00
12636;BME280;6383;50.830;7.210;2023-07-13T10:11:09;100916.63;;;24.80;41.74
12636;BME280;6383;50.830;7.210;2023-07-13T10:13:41;100908.28;;;24.80;42.04
12636;BME280;6383;50.830;7.210;2023-07-13T10:16:11;100904.38;;;24.92;41.85
12636;BME280;6383;50.830;7.210;2023-07-13T10:18:46;100910.00;;;24.99;41.40
12636;BME280;6383;50.830;7.210;2023-07-13T10:21:17;100910.41;;;25.01;40.62
12636;BME280;6383;50.830;7.210;2023-07-13T10:23:53;100914.38;;;25.00;40.52
12636;BME280;6383;50.830;7.210;2023-07-13T10:26:26;100906.44;;;25.02;40.76
12636;BME280;6383;50.830;7.210;2023-07-13T10:29:02;100915.22;;;25.04;41.89
12636;BME280;6383;50.830;7.210;2023-07-13T10:31:31;100916.00;;;25.08;41.38
12636;BME280;6383;50.830;7.210;2023-07-13T10:34:01;100921.56;;;25.08;41.73
12636;BME280;6383;50.830;7.210;2023-07-13T10:36:32;100927.16;;;25.08;41.04
12636;BME280;6383;50.830;7.210;2023-07-13T10:39:04;100925.59;;;25.07;40.78
12636;BME280;6383;50.830;7.210;2023-07-13T10:41:38;100929.53;;;25.10;41.54
12636;BME280;6383;50.830;7.210;2023-07-13T10:44:18;100928.03;;;25.19;41.58
12636;BME280;6383;50.830;7.210;2023-07-13T10:46:48;100935.56;;;25.19;41.05
12636;BME280;6383;50.830;7.210;2023-07-13T10:49:19;100924.84;;;25.21;41.72
12636;BME280;6383;50.830;7.210;2023-07-13T10:51:48;100921.69;;;25.29;41.75
12636;BME280;6383;50.830;7.210;2023-07-13T10:54:21;100920.94;;;25.36;40.91
12636;BME280;6383;50.830;7.210;2023-07-13T10:56:53;100933.25;;;25.39;41.18
12636;BME280;6383;50.830;7.210;2023-07-13T10:59:27;100942.84;;;25.45;39.97
12636;BME280;6383;50.830;7.210;2023-07-13T11:02:09;100941.63;;;25.35;40.33
12636;BME280;6383;50.830;7.210;2023-07-13T11:04:44;100937.63;;;25.33;40.51
12636;BME280;6383;50.830;7.210;2023-07-13T11:07:20;100938.44;;;25.37;39.81
12636;BME280;6383;50.830;7.210;2023-07-13T11:09:52;100932.09;;;25.47;40.27
12636;BME280;6383;50.830;7.210;2023-07-13T11:12:50;100926.94;;;25.56;39.12
12636;BME280;6383;50.830;7.210;2023-07-13T11:15:30;100937.38;;;25.62;39.61
12636;BME280;6383;50.830;7.210;2023-07-13T11:18:03;100931.38;;;25.68;38.94
12636;BME280;6383;50.830;7.210;2023-07-13T11:20:41;100927.03;;;25.67;38.60
12636;BME280;6383;50.830;7.210;2023-07-13T11:23:30;100946.97;;;25.76;38.18
12636;BME280;6383;50.830;7.210;2023-07-13T11:25:59;100942.97;;;25.66;37.70
12636;BME280;6383;50.830;7.210;2023-07-13T11:28:31;100935.69;;;25.54;38.03
12636;BME280;6383;50.830;7.210;2023-07-13T11:31:03;100928.94;;;25.55;38.04
12636;BME280;6383;50.830;7.210;2023-07-13T11:33:51;100930.53;;;25.56;38.08
12636;BME280;6383;50.830;7.210;2023-07-13T11:36:23;100936.56;;;25.69;38.13
12636;BME280;6383;50.830;7.210;2023-07-13T11:38:58;100929.41;;;25.72;37.63
12636;BME280;6383;50.830;7.210;2023-07-13T11:41:31;100932.59;;;25.70;37.17
12636;BME280;6383;50.830;7.210;2023-07-13T11:44:07;100937.38;;;25.73;37.02
12636;BME280;6383;50.830;7.210;2023-07-13T11:46:38;100941.78;;;25.67;37.46
12636;BME280;6383;50.830;7.210;2023-07-13T11:49:06;100931.81;;;25.70;37.04
12636;BME280;6383;50.830;7.210;2023-07-13T11:51:36;100936.19;;;25.63;36.97
12636;BME280;6383;50.830;7.210;2023-07-13T11:54:06;100938.19;;;25.67;37.77
12636;BME280;6383;50.830;7.210;2023-07-13T11:56:36;100940.97;;;25.70;36.77
12636;BME280;6383;50.830;7.210;2023-07-13T11:59:05;100941.38;;;25.72;36.04
12636;BME280;6383;50.830;7.210;2023-07-13T12:01:42;100939.00;;;25.78;37.49
12636;BME280;6383;50.830;7.210;2023-07-13T12:04:21;100933.84;;;25.80;37.59
12636;BME280;6383;50.830;7.210;2023-07-13T12:07:04;100934.25;;;25.82;37.26
12636;BME280;6383;50.830;7.210;2023-07-13T12:09:33;100934.59;;;25.70;37.83
12636;BME280;6383;50.830;7.210;2023-07-13T12:12:03;100932.63;;;25.74;38.34
12636;BME280;6383;50.830;7.210;2023-07-13T12:14:33;100941.78;;;25.78;37.58
12636;BME280;6383;50.830;7.210;2023-07-13T12:17:09;100937.41;;;25.77;37.76
12636;BME280;6383;50.830;7.210;2023-07-13T12:19:41;100938.22;;;25.77;38.09
12636;BME280;6383;50.830;7.210;2023-07-13T12:22:12;100935.81;;;25.86;38.03
12636;BME280;6383;50.830;7.210;2023-07-13T12:24:41;100943.00;;;25.87;37.93
12636;BME280;6383;50.830;7.210;2023-07-13T12:27:18;100939.81;;;25.89;37.72
12636;BME280;6383;50.830;7.210;2023-07-13T12:29:52;100939.00;;;25.85;37.75
12636;BME280;6383;50.830;7.210;2023-07-13T12:32:21;100949.38;;;25.91;37.66
12636;BME280;6383;50.830;7.210;2023-07-13T12:34:55;100955.75;;;25.85;37.76
12636;BME280;6383;50.830;7.210;2023-07-13T12:37:25;100958.94;;;25.87;38.06
12636;BME280;6383;50.830;7.210;2023-07-13T12:39:56;100952.53;;;25.83;38.58
12636;BME280;6383;50.830;7.210;2023-07-13T12:42:25;100955.34;;;25.90;37.07
12636;BME280;6383;50.830;7.210;2023-07-13T12:44:58;100964.13;;;25.81;37.07
12636;BME280;6383;50.830;7.210;2023-07-13T12:47:28;100961.31;;;25.78;37.01
12636;BME280;6383;50.830;7.210;2023-07-13T12:49:59;100964.47;;;25.73;36.97
12636;BME280;6383;50.830;7.210;2023-07-13T12:52:31;100954.13;;;25.73;36.87
12636;BME280;6383;50.830;7.210;2023-07-13T12:55:05;100963.72;;;25.79;37.52
12636;BME280;6383;50.830;7.210;2023-07-13T12:57:41;100964.13;;;25.81;37.72
12636;BME280;6383;50.830;7.210;2023-07-13T13:00:22;100976.06;;;25.85;37.27
12636;BME280;6383;50.830;7.210;2023-07-13T13:02:52;100962.13;;;25.89;36.06
12636;BME280;6383;50.830;7.210;2023-07-13T13:05:26;100963.75;;;25.97;36.60
12636;BME280;6383;50.830;7.210;2023-07-13T13:07:55;100969.72;;;25.99;35.57
12636;BME280;6383;50.830;7.210;2023-07-13T13:10:24;100964.53;;;25.94;36.41
12636;BME280;6383;50.830;7.210;2023-07-13T13:12:52;100960.56;;;25.95;34.60
12636;BME280;6383;50.830;7.210;2023-07-13T13:15:21;100964.53;;;25.94;34.75
12636;BME280;6383;50.830;7.210;2023-07-13T13:17:51;100976.09;;;25.96;34.63
12636;BME280;6383;50.830;7.210;2023-07-13T13:20:21;100966.94;;;25.92;34.94